Time;durP1;ratioP1;P1;durP2;ratioP2;P2;SDS_P1;SDS_P2;PMS_P1;PMS_P2;Temp;Humidity;BMP_temperature;BMP_pressure;BME280_temperature;BME280_humidity;BME280_pressure;Samples;Min_cycle;Max_cycle;Signal;HPM_P1;HPM_P2
2022/10/22 00:02:26;;;;;;;13.05;3.40;;;;;;;;;;4921443;29;20127;-75
2022/10/22 00:04:53;;;;;;;14.50;3.22;;;;;;;;;;4921042;29;20042;-75
2022/10/22 00:07:21;;;;;;;12.63;3.08;;;;;;;;;;4921305;29;20501;-75
2022/10/22 00:09:47;;;;;;;16.75;3.22;;;;;;;;;;4921302;29;20079;-75
2022/10/22 00:12:15;;;;;;;10.85;3.22;;;;;;;;;;4921194;29;20043;-75
2022/10/22 00:14:42;;;;;;;15.23;3.75;;;;;;;;;;4921186;29;20048;-75
2022/10/22 00:17:08;;;;;;;10.27;3.05;;;;;;;;;;4921263;29;20044;-75
2022/10/22 00:19:34;;;;;;;13.27;3.38;;;;;;;;;;4921380;29;20040;-75
2022/10/22 00:22:04;;;;;;;11.38;4.03;;;;;;;;;;4921553;29;20100;-75
2022/10/22 00:24:30;;;;;;;9.95;3.95;;;;;;;;;;4920883;29;20044;-75
2022/10/22 00:26:56;;;;;;;10.38;3.92;;;;;;;;;;4920714;29;20048;-75
2022/10/22 00:29:22;;;;;;;12.82;4.10;;;;;;;;;;4921254;29;20179;-75
2022/10/22 00:31:49;;;;;;;10.80;3.42;;;;;;;;;;4920795;29;20529;-75
2022/10/22 00:34:20;;;;;;;10.57;3.53;;;;;;;;;;4920816;29;20036;-75
2022/10/22 00:36:46;;;;;;;15.23;3.70;;;;;;;;;;4920992;29;20070;-75
2022/10/22 00:39:15;;;;;;;10.88;4.03;;;;;;;;;;4920444;29;20091;-75
2022/10/22 00:41:41;;;;;;;12.25;3.60;;;;;;;;;;4921147;29;20488;-75
2022/10/22 00:44:07;;;;;;;9.70;3.45;;;;;;;;;;4921279;29;20048;-75
2022/10/22 00:46:33;;;;;;;8.77;3.60;;;;;;;;;;4920988;29;20051;-75
2022/10/22 00:49:01;;;;;;;9.63;4.05;;;;;;;;;;4921033;29;20075;-75
2022/10/22 00:51:32;;;;;;;8.23;3.55;;;;;;;;;;4920795;29;20486;-75
2022/10/22 00:53:58;;;;;;;;;;;;;;;;;;4921185;29;20096;-75
2022/10/22 00:56:24;;;;;;;19.40;3.10;;;;;;;;;;4920813;29;20258;-75
2022/10/22 00:58:55;;;;;;;10.32;3.15;;;;;;;;;;4935798;29;20377;-75
2022/10/22 01:01:21;;;;;;;;;;;;;;;;;;4920865;29;20048;-75
2022/10/22 01:03:48;;;;;;;6.75;3.38;;;;;;;;;;4920692;29;19919;-75
2022/10/22 01:06:34;;;;;;;14.73;3.42;;;;;;;;;;4920607;29;20044;-75
2022/10/22 01:09:15;;;;;;;8.82;3.20;;;;;;;;;;4920362;29;20054;-76
2022/10/22 01:11:47;;;;;;;10.02;3.30;;;;;;;;;;4920351;29;20051;-75
2022/10/22 01:14:14;;;;;;;11.40;3.47;;;;;;;;;;4920648;29;20044;-75
2022/10/22 01:16:46;;;;;;;13.25;3.28;;;;;;;;;;4920460;29;20044;-75
2022/10/22 01:19:22;;;;;;;13.68;3.10;;;;;;;;;;4920464;29;20054;-75
2022/10/22 01:21:52;;;;;;;8.75;3.10;;;;;;;;;;4920077;29;20074;-75
2022/10/22 01:24:23;;;;;;;8.82;2.97;;;;;;;;;;4920330;29;20048;-75
2022/10/22 01:26:58;;;;;;;12.60;3.15;;;;;;;;;;4920846;29;20056;-75
2022/10/22 01:29:29;;;;;;;7.90;3.17;;;;;;;;;;4919994;29;20103;-75
2022/10/22 01:31:58;;;;;;;10.48;3.65;;;;;;;;;;4920138;29;20051;-75
2022/10/22 01:34:25;;;;;;;14.48;3.65;;;;;;;;;;4920075;29;20040;-75
2022/10/22 01:36:52;;;;;;;15.85;4.32;;;;;;;;;;4920063;29;20048;-75
2022/10/22 01:39:19;;;;;;;11.00;3.28;;;;;;;;;;4919649;29;20099;-75
2022/10/22 01:41:45;;;;;;;12.77;4.22;;;;;;;;;;4919698;29;20464;-75
2022/10/22 01:44:28;;;;;;;12.95;3.13;;;;;;;;;;4919641;29;20513;-75
2022/10/22 01:47:02;;;;;;;13.88;3.42;;;;;;;;;;4919842;29;20099;-75
2022/10/22 01:49:52;;;;;;;11.65;3.33;;;;;;;;;;4919238;29;20044;-75
2022/10/22 01:52:33;;;;;;;11.50;3.33;;;;;;;;;;4901018;29;20060;-75
2022/10/22 01:54:59;;;;;;;;;;;;;;;;;;4919982;29;20139;-75
2022/10/22 01:57:34;;;;;;;15.60;3.53;;;;;;;;;;4919630;29;20383;-75
2022/10/22 02:00:03;;;;;;;12.75;3.50;;;;;;;;;;4919457;29;20072;-75
2022/10/22 02:02:32;;;;;;;22.30;3.40;;;;;;;;;;4919582;29;20110;-75
2022/10/22 02:05:01;;;;;;;8.70;3.30;;;;;;;;;;4919607;29;20115;-75
2022/10/22 02:07:30;;;;;;;8.65;3.00;;;;;;;;;;4919508;29;20044;-75
2022/10/22 02:09:57;;;;;;;13.35;3.03;;;;;;;;;;4919470;29;20480;-75
2022/10/22 02:12:24;;;;;;;9.73;3.50;;;;;;;;;;4919344;29;20052;-75
2022/10/22 02:14:51;;;;;;;11.25;3.28;;;;;;;;;;4919042;29;20400;-75
2022/10/22 02:17:19;;;;;;;13.13;3.88;;;;;;;;;;4919306;29;20040;-75
2022/10/22 02:19:56;;;;;;;11.15;3.13;;;;;;;;;;4919082;29;20087;-75
2022/10/22 02:22:23;;;;;;;12.02;2.75;;;;;;;;;;4918948;29;20058;-75
2022/10/22 02:24:49;;;;;;;11.75;3.75;;;;;;;;;;4918902;29;20135;-75
2022/10/22 02:27:21;;;;;;;11.43;3.05;;;;;;;;;;4919148;29;20083;-75
2022/10/22 02:29:50;;;;;;;16.05;3.60;;;;;;;;;;4919410;29;20044;-75
2022/10/22 02:32:20;;;;;;;12.80;3.92;;;;;;;;;;4919316;29;20087;-75
2022/10/22 02:34:47;;;;;;;13.18;3.55;;;;;;;;;;4919122;29;20095;-75
2022/10/22 02:37:13;;;;;;;14.00;3.40;;;;;;;;;;4918997;29;20048;-75
2022/10/22 02:39:40;;;;;;;8.85;2.92;;;;;;;;;;4919079;29;20046;-75
2022/10/22 02:42:06;;;;;;;13.05;3.10;;;;;;;;;;4918777;29;20052;-75
2022/10/22 02:44:32;;;;;;;10.93;3.50;;;;;;;;;;4918403;29;20040;-75
2022/10/22 02:46:58;;;;;;;15.05;3.78;;;;;;;;;;4918620;29;20100;-75
2022/10/22 02:49:24;;;;;;;12.52;3.40;;;;;;;;;;4918733;29;20492;-75
2022/10/22 02:51:50;;;;;;;14.45;3.60;;;;;;;;;;4918397;29;20071;-75
2022/10/22 02:54:17;;;;;;;9.60;3.08;;;;;;;;;;4918219;29;20044;-75
2022/10/22 02:56:43;;;;;;;11.38;3.47;;;;;;;;;;4918488;29;20075;-75
2022/10/22 02:59:09;;;;;;;13.05;3.55;;;;;;;;;;4918639;29;20047;-75
2022/10/22 03:01:35;;;;;;;18.00;4.35;;;;;;;;;;4917471;29;20048;-75
2022/10/22 03:04:01;;;;;;;11.75;3.70;;;;;;;;;;4918373;29;20040;-75
2022/10/22 03:06:27;;;;;;;12.70;4.05;;;;;;;;;;4918086;29;20044;-75
2022/10/22 03:08:53;;;;;;;9.40;3.53;;;;;;;;;;4918903;29;20044;-75
2022/10/22 03:11:19;;;;;;;9.75;3.20;;;;;;;;;;4918072;29;20178;-75
2022/10/22 03:13:46;;;;;;;13.43;3.97;;;;;;;;;;4917829;29;20598;-75
2022/10/22 03:16:12;;;;;;;19.77;4.07;;;;;;;;;;4918523;29;20040;-75
2022/10/22 03:18:38;;;;;;;11.35;3.47;;;;;;;;;;4918756;29;20048;-75
2022/10/22 03:21:07;;;;;;;10.40;2.83;;;;;;;;;;4918234;29;20052;-75
2022/10/22 03:23:33;;;;;;;20.88;3.58;;;;;;;;;;4918106;29;20040;-75
2022/10/22 03:26:00;;;;;;;13.27;3.65;;;;;;;;;;4917766;29;20049;-74
2022/10/22 03:28:26;;;;;;;12.30;3.67;;;;;;;;;;4918452;29;20044;-74
2022/10/22 03:30:53;;;;;;;15.32;3.83;;;;;;;;;;4917981;29;20266;-75
2022/10/22 03:33:19;;;;;;;17.77;3.53;;;;;;;;;;4918032;29;20047;-75
2022/10/22 03:35:46;;;;;;;8.70;3.10;;;;;;;;;;4918124;29;20040;-75
2022/10/22 03:38:13;;;;;;;10.98;3.33;;;;;;;;;;4918591;29;20047;-75
2022/10/22 03:40:39;;;;;;;13.32;3.72;;;;;;;;;;4917648;29;20067;-75
2022/10/22 03:43:05;;;;;;;18.00;3.60;;;;;;;;;;4918001;29;20048;-75
2022/10/22 03:45:31;;;;;;;12.15;3.50;;;;;;;;;;4917974;29;20147;-75
2022/10/22 03:47:57;;;;;;;12.70;3.55;;;;;;;;;;4917707;29;20511;-75
2022/10/22 03:50:24;;;;;;;22.17;4.00;;;;;;;;;;4917833;29;20048;-75
2022/10/22 03:52:50;;;;;;;8.02;3.60;;;;;;;;;;4918475;29;20088;-75
2022/10/22 03:55:16;;;;;;;17.90;4.05;;;;;;;;;;4917750;29;20044;-75
2022/10/22 03:57:42;;;;;;;28.90;4.45;;;;;;;;;;4917897;29;20128;-75
2022/10/22 04:00:08;;;;;;;10.18;2.90;;;;;;;;;;4917686;29;20108;-75
2022/10/22 04:02:35;;;;;;;11.40;3.42;;;;;;;;;;4918401;29;20044;-75
2022/10/22 04:05:01;;;;;;;15.70;3.75;;;;;;;;;;4917844;29;20071;-75
2022/10/22 04:07:27;;;;;;;16.23;3.58;;;;;;;;;;4917547;29;20055;-75
2022/10/22 04:09:53;;;;;;;9.30;3.47;;;;;;;;;;4917750;29;20044;-75
2022/10/22 04:12:19;;;;;;;10.18;3.50;;;;;;;;;;4917701;29;20052;-74
2022/10/22 04:14:45;;;;;;;13.52;3.83;;;;;;;;;;4921034;29;20044;-75
2022/10/22 04:17:11;;;;;;;17.95;3.35;;;;;;;;;;4921664;29;20499;-75
2022/10/22 04:19:37;;;;;;;13.70;4.10;;;;;;;;;;4921242;29;20051;-75
2022/10/22 04:22:03;;;;;;;13.00;3.72;;;;;;;;;;4921675;29;20083;-75
2022/10/22 04:24:30;;;;;;;12.35;3.80;;;;;;;;;;4920906;29;20044;-75
2022/10/22 04:26:57;;;;;;;11.23;3.55;;;;;;;;;;4921196;29;20044;-75
2022/10/22 04:29:23;;;;;;;15.77;3.50;;;;;;;;;;4920878;29;20044;-75
2022/10/22 04:31:49;;;;;;;17.70;3.38;;;;;;;;;;4920860;29;20052;-75
2022/10/22 04:34:15;;;;;;;16.83;3.65;;;;;;;;;;4920893;29;20130;-75
2022/10/22 04:36:41;;;;;;;13.48;3.58;;;;;;;;;;4921126;29;20494;-75
2022/10/22 04:39:07;;;;;;;11.98;3.28;;;;;;;;;;4920984;29;20078;-75
2022/10/22 04:41:35;;;;;;;12.63;3.53;;;;;;;;;;4920582;29;20071;-75
2022/10/22 04:44:01;;;;;;;15.38;3.80;;;;;;;;;;4920870;29;20051;-75
2022/10/22 04:46:28;;;;;;;9.25;2.90;;;;;;;;;;4920715;29;20499;-75
2022/10/22 04:48:55;;;;;;;11.25;3.28;;;;;;;;;;4920851;29;20044;-75
2022/10/22 04:51:22;;;;;;;9.98;3.03;;;;;;;;;;4920823;29;20048;-75
2022/10/22 04:53:48;;;;;;;13.05;3.47;;;;;;;;;;4920987;29;20048;-75
2022/10/22 04:56:20;;;;;;;11.55;3.42;;;;;;;;;;4920542;29;20095;-75
2022/10/22 04:58:56;;;;;;;15.32;3.17;;;;;;;;;;4920960;29;20534;-75
2022/10/22 05:01:27;;;;;;;18.13;3.13;;;;;;;;;;4920474;29;20541;-75
2022/10/22 05:03:54;;;;;;;15.23;3.00;;;;;;;;;;4920160;29;20440;-75
2022/10/22 05:06:21;;;;;;;15.32;3.80;;;;;;;;;;4920356;29;20622;-75
2022/10/22 05:08:48;;;;;;;16.70;2.90;;;;;;;;;;4920052;29;20070;-75
2022/10/22 05:11:15;;;;;;;23.50;4.80;;;;;;;;;;4919878;29;20078;-75
2022/10/22 05:13:41;;;;;;;15.73;3.42;;;;;;;;;;4919933;29;20040;-75
2022/10/22 05:16:08;;;;;;;10.27;3.45;;;;;;;;;;4920134;29;20099;-75
2022/10/22 05:18:38;;;;;;;12.15;3.03;;;;;;;;;;4919585;29;20450;-75
2022/10/22 05:21:05;;;;;;;15.07;3.27;;;;;;;;;;4919859;29;20048;-75
2022/10/22 05:23:31;;;;;;;8.45;3.15;;;;;;;;;;4919719;29;20264;-75
2022/10/22 05:25:57;;;;;;;12.07;3.20;;;;;;;;;;4919070;29;20051;-75
2022/10/22 05:28:23;;;;;;;12.20;3.28;;;;;;;;;;4920484;29;20055;-75
2022/10/22 05:30:53;;;;;;;12.38;3.13;;;;;;;;;;4920328;29;20110;-75
2022/10/22 05:33:21;;;;;;;13.55;3.42;;;;;;;;;;4919722;29;20518;-75
2022/10/22 05:35:47;;;;;;;10.30;3.05;;;;;;;;;;4920103;29;20043;-75
2022/10/22 05:38:13;;;;;;;17.05;3.40;;;;;;;;;;4919997;29;20048;-75
2022/10/22 05:40:39;;;;;;;8.50;3.50;;;;;;;;;;4919223;29;20123;-75
2022/10/22 05:43:05;;;;;;;12.25;3.28;;;;;;;;;;4920226;29;20044;-75
2022/10/22 05:45:35;;;;;;;16.20;3.33;;;;;;;;;;4919326;29;20127;-74
2022/10/22 05:48:01;;;;;;;10.40;3.15;;;;;;;;;;4920401;29;20483;-75
2022/10/22 05:50:27;;;;;;;14.10;3.47;;;;;;;;;;4918935;29;20127;-75
2022/10/22 05:52:54;;;;;;;10.63;3.17;;;;;;;;;;4919766;29;20058;-75
2022/10/22 05:55:20;;;;;;;7.05;3.08;;;;;;;;;;4918988;29;20039;-75
2022/10/22 05:57:48;;;;;;;12.00;3.10;;;;;;;;;;4919404;29;20122;-75
2022/10/22 06:00:14;;;;;;;14.90;2.90;;;;;;;;;;4919180;29;20582;-75
2022/10/22 06:02:40;;;;;;;12.73;2.90;;;;;;;;;;4919457;29;20496;-74
2022/10/22 06:05:06;;;;;;;10.45;3.10;;;;;;;;;;4919291;29;20044;-74
2022/10/22 06:07:33;;;;;;;13.15;3.40;;;;;;;;;;4918531;29;20055;-75
2022/10/22 06:09:59;;;;;;;12.93;3.25;;;;;;;;;;4917815;29;20052;-75
2022/10/22 06:12:25;;;;;;;12.18;3.17;;;;;;;;;;4913606;29;20176;-74
2022/10/22 06:14:51;;;;;;;12.73;3.42;;;;;;;;;;4917744;29;20048;-75
2022/10/22 06:17:18;;;;;;;11.15;3.72;;;;;;;;;;4919091;29;20492;-74
2022/10/22 06:19:44;;;;;;;19.15;3.45;;;;;;;;;;4919027;29;20377;-75
2022/10/22 06:22:11;;;;;;;7.47;3.50;;;;;;;;;;4918584;29;20047;-75
2022/10/22 06:24:37;;;;;;;9.48;3.53;;;;;;;;;;4915081;29;20471;-76
2022/10/22 06:27:03;;;;;;;13.68;3.35;;;;;;;;;;4917499;29;20040;-72
2022/10/22 06:29:29;;;;;;;15.73;3.05;;;;;;;;;;4916950;29;20071;-75
2022/10/22 06:31:55;;;;;;;8.43;2.88;;;;;;;;;;4918677;29;20127;-75
2022/10/22 06:34:21;;;;;;;11.57;3.63;;;;;;;;;;4918723;29;20051;-75
2022/10/22 06:36:48;;;;;;;11.00;3.63;;;;;;;;;;4917363;29;20040;-74
2022/10/22 06:39:15;;;;;;;13.63;3.58;;;;;;;;;;4915997;29;20048;-72
2022/10/22 06:41:41;;;;;;;10.65;3.72;;;;;;;;;;4916426;29;20071;-74
2022/10/22 06:44:12;;;;;;;9.25;3.42;;;;;;;;;;4916159;29;20542;-74
2022/10/22 06:46:38;;;;;;;;;;;;;;;;;;4912320;29;20048;-74
2022/10/22 06:49:05;;;;;;;13.20;3.72;;;;;;;;;;4915596;29;19939;-74
2022/10/22 06:51:31;;;;;;;12.00;3.35;;;;;;;;;;4909500;29;20044;-74
2022/10/22 06:53:58;;;;;;;11.20;2.78;;;;;;;;;;4910933;29;20048;-74
2022/10/22 06:56:25;;;;;;;16.65;3.53;;;;;;;;;;4910674;29;20052;-74
2022/10/22 06:58:52;;;;;;;10.65;2.88;;;;;;;;;;4900012;29;20041;-74
2022/10/22 07:01:21;;;;;;;8.07;2.90;;;;;;;;;;4916185;29;20115;-73
2022/10/22 07:03:50;;;;;;;11.65;3.13;;;;;;;;;;4917290;29;20583;-74
2022/10/22 07:06:16;;;;;;;13.63;2.78;;;;;;;;;;4911111;29;20096;-75
2022/10/22 07:08:42;;;;;;;12.30;3.10;;;;;;;;;;4909076;29;20127;-75
2022/10/22 07:11:10;;;;;;;8.57;2.85;;;;;;;;;;4920214;29;20082;-74
2022/10/22 07:13:36;;;;;;;14.20;2.83;;;;;;;;;;4936993;29;20051;-74
2022/10/22 07:16:03;;;;;;;14.77;2.80;;;;;;;;;;4921178;29;20044;-74
2022/10/22 07:18:29;;;;;;;11.23;3.03;;;;;;;;;;4917206;29;20043;-74
2022/10/22 07:20:56;;;;;;;10.15;3.08;;;;;;;;;;4918130;29;20052;-75
2022/10/22 07:23:22;;;;;;;15.50;3.13;;;;;;;;;;4917483;29;20044;-74
2022/10/22 07:25:48;;;;;;;10.25;3.08;;;;;;;;;;4917602;29;20051;-78
2022/10/22 07:28:14;;;;;;;12.60;3.40;;;;;;;;;;4917790;29;20159;-74
2022/10/22 07:30:40;;;;;;;11.45;3.45;;;;;;;;;;4917416;29;20044;-76
2022/10/22 07:33:07;;;;;;;9.75;2.78;;;;;;;;;;4915968;29;20051;-77
2022/10/22 07:35:33;;;;;;;8.00;2.53;;;;;;;;;;4917244;29;20487;-76
2022/10/22 07:38:00;;;;;;;5.82;2.45;;;;;;;;;;4916660;29;20058;-77
2022/10/22 07:40:26;;;;;;;13.55;3.33;;;;;;;;;;4917111;29;20052;-76
2022/10/22 07:42:52;;;;;;;8.00;2.97;;;;;;;;;;4918629;29;20147;-76
2022/10/22 07:45:18;;;;;;;8.38;2.67;;;;;;;;;;4917697;29;20074;-76
2022/10/22 07:47:44;;;;;;;7.80;2.80;;;;;;;;;;4918071;29;20043;-76
2022/10/22 07:50:10;;;;;;;8.90;2.60;;;;;;;;;;4921668;29;20070;-76
2022/10/22 07:52:36;;;;;;;15.15;3.08;;;;;;;;;;4921196;29;20051;-76
2022/10/22 07:55:02;;;;;;;12.18;3.78;;;;;;;;;;4921144;29;20052;-76
2022/10/22 07:57:28;;;;;;;12.90;3.55;;;;;;;;;;4921360;29;20044;-76
2022/10/22 07:59:56;;;;;;;13.02;3.15;;;;;;;;;;4921249;29;20059;-76
2022/10/22 08:02:23;;;;;;;8.88;3.47;;;;;;;;;;4921161;29;20043;-76
2022/10/22 08:04:49;;;;;;;14.10;3.70;;;;;;;;;;4921571;29;20048;-76
2022/10/22 08:07:15;;;;;;;11.98;3.10;;;;;;;;;;4921433;29;20043;-76
2022/10/22 08:09:41;;;;;;;10.73;3.50;;;;;;;;;;4921252;29;20046;-76
2022/10/22 08:12:07;;;;;;;9.73;3.30;;;;;;;;;;4921231;29;20044;-76
2022/10/22 08:14:33;;;;;;;9.68;3.40;;;;;;;;;;4921215;29;20048;-76
2022/10/22 08:17:00;;;;;;;13.15;3.47;;;;;;;;;;4921264;29;20047;-76
2022/10/22 08:19:27;;;;;;;10.00;3.35;;;;;;;;;;4921389;29;20048;-76
2022/10/22 08:21:53;;;;;;;10.15;3.22;;;;;;;;;;4921139;29;20072;-76
2022/10/22 08:24:19;;;;;;;17.33;3.22;;;;;;;;;;4921221;29;20044;-76
2022/10/22 08:26:46;;;;;;;13.63;3.65;;;;;;;;;;4921114;29;20499;-76
2022/10/22 08:29:12;;;;;;;15.43;3.28;;;;;;;;;;4921350;29;20088;-76
2022/10/22 08:31:38;;;;;;;10.40;3.10;;;;;;;;;;4920920;29;20514;-76
2022/10/22 08:34:04;;;;;;;19.33;3.90;;;;;;;;;;4920907;29;20076;-76
2022/10/22 08:36:30;;;;;;;6.15;3.30;;;;;;;;;;4920578;29;20479;-76
2022/10/22 08:38:56;;;;;;;12.00;2.90;;;;;;;;;;4920733;29;20044;-76
2022/10/22 08:41:23;;;;;;;10.02;3.00;;;;;;;;;;4920591;29;20079;-76
2022/10/22 08:43:49;;;;;;;15.02;3.63;;;;;;;;;;4920436;29;20063;-76
2022/10/22 08:46:32;;;;;;;10.45;3.10;;;;;;;;;;4920540;29;20044;-76
2022/10/22 08:48:59;;;;;;;19.38;3.53;;;;;;;;;;4920885;29;20055;-76
2022/10/22 08:51:29;;;;;;;16.20;3.95;;;;;;;;;;4920487;29;20055;-76
2022/10/22 08:54:07;;;;;;;15.50;3.25;;;;;;;;;;4920516;29;20365;-76
2022/10/22 08:56:36;;;;;;;10.65;3.38;;;;;;;;;;4920567;29;20054;-76
2022/10/22 08:59:22;;;;;;;10.45;3.50;;;;;;;;;;4920243;29;20095;-76
2022/10/22 09:01:50;;;;;;;14.52;3.75;;;;;;;;;;4920527;29;20052;-76
2022/10/22 09:04:24;;;;;;;8.73;3.97;;;;;;;;;;4920672;29;20127;-76
2022/10/22 09:06:50;;;;;;;12.88;3.42;;;;;;;;;;4920083;29;20048;-76
2022/10/22 09:09:18;;;;;;;17.38;3.88;;;;;;;;;;4920216;29;20074;-76
2022/10/22 09:11:45;;;;;;;8.73;4.20;;;;;;;;;;4920461;29;20078;-76
2022/10/22 09:14:19;;;;;;;6.95;4.13;;;;;;;;;;4920414;29;20040;-76
2022/10/22 09:17:03;;;;;;;17.20;3.80;;;;;;;;;;4920499;29;20058;-76
2022/10/22 09:19:37;;;;;;;13.77;4.57;;;;;;;;;;4920414;29;20103;-76
2022/10/22 09:22:12;;;;;;;10.70;3.85;;;;;;;;;;4920414;29;20048;-76
2022/10/22 09:24:41;;;;;;;10.07;4.15;;;;;;;;;;4919584;29;20527;-76
2022/10/22 09:27:11;;;;;;;10.85;4.57;;;;;;;;;;4920011;29;20044;-76
2022/10/22 09:29:37;;;;;;;10.75;4.20;;;;;;;;;;4920005;29;20036;-76
2022/10/22 09:32:04;;;;;;;11.68;3.97;;;;;;;;;;4919851;29;20135;-76
2022/10/22 09:34:30;;;;;;;18.80;4.35;;;;;;;;;;4919814;29;20044;-76
2022/10/22 09:36:57;;;;;;;8.40;3.75;;;;;;;;;;4920044;29;20094;-76
2022/10/22 09:39:24;;;;;;;12.13;3.33;;;;;;;;;;4919595;29;20051;-76
2022/10/22 09:41:50;;;;;;;8.02;3.35;;;;;;;;;;4920186;29;20064;-76
2022/10/22 09:44:18;;;;;;;9.75;3.35;;;;;;;;;;4919986;29;20040;-76
2022/10/22 09:46:44;;;;;;;13.55;3.42;;;;;;;;;;4920689;29;20046;-76
2022/10/22 09:49:18;;;;;;;17.02;3.75;;;;;;;;;;4920185;29;20044;-76
2022/10/22 09:51:51;;;;;;;9.43;3.38;;;;;;;;;;4919784;29;20626;-76
2022/10/22 09:54:19;;;;;;;10.70;3.40;;;;;;;;;;4919643;29;20048;-76
2022/10/22 09:56:51;;;;;;;9.73;3.30;;;;;;;;;;4919451;29;20044;-76
2022/10/22 09:59:18;;;;;;;7.65;3.05;;;;;;;;;;4919741;29;20119;-76
2022/10/22 10:01:44;;;;;;;10.20;2.40;;;;;;;;;;4919666;29;20051;-76
2022/10/22 10:04:12;;;;;;;4.32;2.05;;;;;;;;;;4919371;29;20036;-76
2022/10/22 10:06:40;;;;;;;7.40;2.72;;;;;;;;;;4919566;29;20043;-76
2022/10/22 10:09:13;;;;;;;10.18;2.28;;;;;;;;;;4919581;29;20036;-76
2022/10/22 10:11:53;;;;;;;8.30;2.40;;;;;;;;;;4919141;29;20138;-76
2022/10/22 10:14:38;;;;;;;8.13;2.25;;;;;;;;;;4919775;29;20052;-76
2022/10/22 10:17:07;;;;;;;6.78;2.78;;;;;;;;;;4919864;29;20044;-76
2022/10/22 10:19:36;;;;;;;7.32;2.35;;;;;;;;;;4919501;29;20072;-76
2022/10/22 10:22:14;;;;;;;14.55;2.88;;;;;;;;;;4919798;29;20123;-76
2022/10/22 10:25:00;;;;;;;7.05;2.95;;;;;;;;;;4918826;29;20044;-76
2022/10/22 10:27:33;;;;;;;11.10;3.33;;;;;;;;;;4919944;29;20044;-76
2022/10/22 10:30:11;;;;;;;11.13;3.03;;;;;;;;;;4919316;29;20052;-76
2022/10/22 10:32:52;;;;;;;7.03;2.97;;;;;;;;;;4919866;29;20135;-76
2022/10/22 10:35:21;;;;;;;8.80;3.25;;;;;;;;;;4918471;29;20118;-76
2022/10/22 10:37:59;;;;;;;6.50;2.92;;;;;;;;;;4919322;29;20044;-76
2022/10/22 10:40:45;;;;;;;11.00;4.25;;;;;;;;;;4918592;29;20070;-76
2022/10/22 10:43:21;;;;;;;9.88;3.85;;;;;;;;;;4919069;29;20063;-76
2022/10/22 10:46:06;;;;;;;11.77;4.55;;;;;;;;;;4919525;29;20048;-76
2022/10/22 10:48:41;;;;;;;15.88;4.63;;;;;;;;;;4919092;29;20067;-76
2022/10/22 10:51:15;;;;;;;14.60;5.22;;;;;;;;;;4918828;29;20499;-76
2022/10/22 10:53:41;;;;;;;13.23;5.07;;;;;;;;;;4918519;29;20456;-76
2022/10/22 10:56:14;;;;;;;14.95;5.50;;;;;;;;;;4918644;29;20078;-76
2022/10/22 10:58:49;;;;;;;13.88;4.97;;;;;;;;;;4918960;29;20040;-76
2022/10/22 11:01:26;;;;;;;15.75;5.60;;;;;;;;;;4918651;29;20100;-76
2022/10/22 11:04:03;;;;;;;15.27;5.57;;;;;;;;;;4918770;29;20527;-76
2022/10/22 11:06:31;;;;;;;13.95;5.38;;;;;;;;;;4918728;29;20078;-76
2022/10/22 11:09:00;;;;;;;9.75;4.82;;;;;;;;;;4918526;29;20052;-76
2022/10/22 11:11:26;;;;;;;17.92;5.20;;;;;;;;;;4918238;29;20522;-76
2022/10/22 11:14:02;;;;;;;10.32;4.75;;;;;;;;;;4918284;29;20059;-76
2022/10/22 11:16:36;;;;;;;16.48;4.53;;;;;;;;;;4918535;29;20047;-76
2022/10/22 11:19:05;;;;;;;13.40;4.82;;;;;;;;;;4918714;29;20048;-76
2022/10/22 11:21:39;;;;;;;11.32;4.53;;;;;;;;;;4918193;29;20411;-76
2022/10/22 11:24:05;;;;;;;10.90;4.55;;;;;;;;;;4921043;29;20496;-76
2022/10/22 11:26:31;;;;;;;12.57;4.30;;;;;;;;;;4922144;29;20511;-76
2022/10/22 11:28:59;;;;;;;13.20;4.50;;;;;;;;;;4922591;29;20052;-76
2022/10/22 11:31:25;;;;;;;17.67;4.93;;;;;;;;;;4922280;29;20048;-76
2022/10/22 11:34:01;;;;;;;11.52;4.63;;;;;;;;;;4922298;29;20083;-76
2022/10/22 11:36:28;;;;;;;11.15;4.47;;;;;;;;;;4922234;29;20444;-76
2022/10/22 11:38:55;;;;;;;14.60;4.63;;;;;;;;;;4922422;29;20148;-76
2022/10/22 11:41:29;;;;;;;12.75;4.30;;;;;;;;;;4922044;29;20064;-76
2022/10/22 11:44:08;;;;;;;10.98;4.50;;;;;;;;;;4922540;29;20450;-76
2022/10/22 11:46:39;;;;;;;13.02;4.57;;;;;;;;;;4922016;29;20035;-76
2022/10/22 11:49:14;;;;;;;14.80;4.47;;;;;;;;;;4920609;29;20040;-78
2022/10/22 11:51:41;;;;;;;12.85;3.53;;;;;;;;;;4920406;29;20052;-76
2022/10/22 11:54:26;;;;;;;15.52;4.68;;;;;;;;;;4921185;29;20036;-74
2022/10/22 11:56:52;;;;;;;12.75;3.65;;;;;;;;;;4921882;29;20083;-75
2022/10/22 11:59:41;;;;;;;13.40;3.72;;;;;;;;;;4921389;29;20052;-77
2022/10/22 12:02:34;;;;;;;10.98;3.70;;;;;;;;;;4915261;29;20048;-77
2022/10/22 12:05:19;;;;;;;13.00;4.55;;;;;;;;;;4918842;29;20052;-74
2022/10/22 12:07:57;;;;;;;11.55;4.40;;;;;;;;;;4911552;29;20095;-74
2022/10/22 12:10:35;;;;;;;18.77;5.07;;;;;;;;;;4918310;29;20036;-76
2022/10/22 12:13:20;;;;;;;13.55;5.30;;;;;;;;;;4919016;29;20087;-78
2022/10/22 12:15:47;;;;;;;15.65;4.78;;;;;;;;;;4916752;29;20485;-77
2022/10/22 12:18:14;;;;;;;12.85;4.53;;;;;;;;;;4918078;29;20499;-77
2022/10/22 12:20:40;;;;;;;13.50;5.15;;;;;;;;;;4918156;29;20052;-78
2022/10/22 12:23:09;;;;;;;10.60;4.78;;;;;;;;;;4918115;29;20036;-77
2022/10/22 12:25:35;;;;;;;17.48;4.88;;;;;;;;;;4918109;29;20048;-76
2022/10/22 12:28:01;;;;;;;12.45;4.80;;;;;;;;;;4920857;29;20050;-76
2022/10/22 12:30:29;;;;;;;13.10;4.82;;;;;;;;;;4920824;29;20052;-77
2022/10/22 12:32:56;;;;;;;17.15;4.78;;;;;;;;;;4917465;29;20044;-76
2022/10/22 12:35:27;;;;;;;12.93;4.90;;;;;;;;;;4920110;29;20088;-77
2022/10/22 12:37:53;;;;;;;;;;;;;;;;;;4920664;29;20036;-79
2022/10/22 12:40:22;;;;;;;10.77;4.63;;;;;;;;;;4919393;29;19919;-79
2022/10/22 12:42:53;;;;;;;15.38;4.53;;;;;;;;;;4919487;29;20131;-77
2022/10/22 12:45:19;;;;;;;16.92;4.57;;;;;;;;;;4919341;29;20052;-78
2022/10/22 12:47:46;;;;;;;16.35;6.00;;;;;;;;;;4919169;29;20176;-76
2022/10/22 12:50:20;;;;;;;15.27;4.70;;;;;;;;;;4919370;29;20048;-75
2022/10/22 12:52:47;;;;;;;13.77;4.90;;;;;;;;;;4916678;29;20055;-75
2022/10/22 12:55:21;;;;;;;15.80;5.35;;;;;;;;;;4918531;29;20040;-75
2022/10/22 12:57:48;;;;;;;15.93;4.68;;;;;;;;;;4917947;29;20377;-75
2022/10/22 13:00:33;;;;;;;14.82;5.70;;;;;;;;;;4917502;29;20040;-76
2022/10/22 13:03:05;;;;;;;20.98;5.43;;;;;;;;;;4916436;29;20048;-75
2022/10/22 13:05:37;;;;;;;14.23;4.68;;;;;;;;;;4917436;29;20058;-76
2022/10/22 13:08:10;;;;;;;15.63;5.18;;;;;;;;;;4917059;29;20070;-76
2022/10/22 13:10:38;;;;;;;12.13;4.90;;;;;;;;;;4918578;29;20080;-75
2022/10/22 13:13:07;;;;;;;14.80;5.40;;;;;;;;;;4918135;29;20051;-74
2022/10/22 13:15:35;;;;;;;17.17;5.32;;;;;;;;;;4909791;29;20048;-76
2022/10/22 13:18:04;;;;;;;13.52;5.63;;;;;;;;;;4918517;29;20123;-75
2022/10/22 13:20:31;;;;;;;16.95;5.50;;;;;;;;;;4917393;29;20047;-74
2022/10/22 13:23:02;;;;;;;16.25;5.55;;;;;;;;;;4916337;29;20068;-76
2022/10/22 13:25:28;;;;;;;12.77;5.30;;;;;;;;;;4900804;29;20102;-75
2022/10/22 13:27:56;;;;;;;15.27;6.13;;;;;;;;;;4907765;29;20032;-77
2022/10/22 13:30:25;;;;;;;17.77;5.65;;;;;;;;;;4917436;29;20055;-76
2022/10/22 13:32:53;;;;;;;18.65;5.53;;;;;;;;;;4919513;29;20040;-76
2022/10/22 13:35:21;;;;;;;17.80;6.32;;;;;;;;;;4918519;29;20059;-74
2022/10/22 13:37:47;;;;;;;16.33;6.53;;;;;;;;;;4918098;29;20357;-73
2022/10/22 13:40:13;;;;;;;18.67;6.30;;;;;;;;;;4904442;29;20195;-76
2022/10/22 13:42:40;;;;;;;20.63;6.07;;;;;;;;;;4917282;29;20048;-75
2022/10/22 13:45:06;;;;;;;18.27;6.47;;;;;;;;;;4919176;29;20044;-77
2022/10/22 13:47:33;;;;;;;15.80;6.00;;;;;;;;;;4917160;29;20126;-77
2022/10/22 13:50:00;;;;;;;13.90;5.97;;;;;;;;;;4918703;29;20059;-77
2022/10/22 13:52:28;;;;;;;17.02;6.40;;;;;;;;;;4908625;29;20048;-77
2022/10/22 13:54:54;;;;;;;17.73;6.38;;;;;;;;;;4918076;29;20067;-78
2022/10/22 13:57:20;;;;;;;15.43;6.28;;;;;;;;;;4916109;29;20068;-78
2022/10/22 13:59:46;;;;;;;20.75;6.70;;;;;;;;;;4917325;29;20487;-76
2022/10/22 14:02:12;;;;;;;17.13;6.65;;;;;;;;;;4917273;29;20047;-79
2022/10/22 14:04:40;;;;;;;18.90;7.43;;;;;;;;;;4915021;29;20403;-80
2022/10/22 14:07:13;;;;;;;19.05;8.13;;;;;;;;;;4917967;29;20071;-80
2022/10/22 14:09:39;;;;;;;17.20;5.97;;;;;;;;;;4918519;29;20382;-77
2022/10/22 14:12:16;;;;;;;14.18;5.95;;;;;;;;;;4915875;29;20078;-76
2022/10/22 14:14:42;;;;;;;17.08;7.10;;;;;;;;;;4918972;29;20058;-76
2022/10/22 14:17:16;;;;;;;17.98;6.93;;;;;;;;;;4918321;29;20044;-77
2022/10/22 14:19:43;;;;;;;15.73;6.32;;;;;;;;;;4918076;29;20107;-77
2022/10/22 14:22:13;;;;;;;17.13;6.38;;;;;;;;;;4916695;29;20048;-77
2022/10/22 14:24:40;;;;;;;14.93;6.28;;;;;;;;;;4918304;29;20521;-76
2022/10/22 14:27:06;;;;;;;20.48;7.70;;;;;;;;;;4918689;29;20040;-77
2022/10/22 14:29:32;;;;;;;18.65;7.28;;;;;;;;;;4918043;29;20043;-77
2022/10/22 14:31:58;;;;;;;11.70;6.78;;;;;;;;;;4916081;29;20040;-76
2022/10/22 14:34:24;;;;;;;16.67;6.18;;;;;;;;;;4916610;29;20130;-76
2022/10/22 14:36:50;;;;;;;11.85;5.90;;;;;;;;;;4916776;29;20048;-75
2022/10/22 14:39:17;;;;;;;21.95;6.38;;;;;;;;;;4917533;29;20084;-76
2022/10/22 14:41:43;;;;;;;14.68;6.18;;;;;;;;;;4913107;29;20089;-76
2022/10/22 14:44:12;;;;;;;11.07;6.13;;;;;;;;;;4913250;29;20058;-77